sensor_id;sensor_type;location;lat;lon;timestamp;P1;durP1;ratioP1;P2;durP2;ratioP2
57401;SDS011;43226;51.110;6.998;2022-09-29T00:01:06;9.00;;;6.97;;
57401;SDS011;43226;51.110;6.998;2022-09-29T00:03:31;10.70;;;7.13;;
57401;SDS011;43226;51.110;6.998;2022-09-29T00:05:57;10.10;;;6.77;;
57401;SDS011;43226;51.110;6.998;2022-09-29T00:08:23;9.63;;;7.50;;
57401;SDS011;43226;51.110;6.998;2022-09-29T00:10:49;9.20;;;6.40;;
57401;SDS011;43226;51.110;6.998;2022-09-29T00:13:14;12.53;;;7.20;;
57401;SDS011;43226;51.110;6.998;2022-09-29T00:15:40;7.87;;;6.43;;
57401;SDS011;43226;51.110;6.998;2022-09-29T00:18:05;8.10;;;6.40;;
57401;SDS011;43226;51.110;6.998;2022-09-29T00:20:32;10.13;;;6.43;;
57401;SDS011;43226;51.110;6.998;2022-09-29T00:22:57;7.77;;;6.67;;
57401;SDS011;43226;51.110;6.998;2022-09-29T00:25:22;7.80;;;6.60;;
57401;SDS011;43226;51.110;6.998;2022-09-29T00:27:48;9.37;;;6.53;;
57401;SDS011;43226;51.110;6.998;2022-09-29T00:30:13;8.50;;;7.27;;
57401;SDS011;43226;51.110;6.998;2022-09-29T00:32:38;10.10;;;7.27;;
57401;SDS011;43226;51.110;6.998;2022-09-29T00:35:04;8.40;;;7.27;;
57401;SDS011;43226;51.110;6.998;2022-09-29T00:37:29;9.47;;;6.53;;
57401;SDS011;43226;51.110;6.998;2022-09-29T00:39:54;8.60;;;6.27;;
57401;SDS011;43226;51.110;6.998;2022-09-29T00:42:20;8.40;;;7.30;;
57401;SDS011;43226;51.110;6.998;2022-09-29T00:47:29;8.50;;;6.50;;
57401;SDS011;43226;51.110;6.998;2022-09-29T00:50:03;12.47;;;6.87;;
57401;SDS011;43226;51.110;6.998;2022-09-29T00:53:03;7.77;;;6.80;;
57401;SDS011;43226;51.110;6.998;2022-09-29T00:55:25;9.80;;;7.60;;
57401;SDS011;43226;51.110;6.998;2022-09-29T00:57:53;8.83;;;6.90;;
57401;SDS011;43226;51.110;6.998;2022-09-29T01:00:20;9.30;;;5.90;;
57401;SDS011;43226;51.110;6.998;2022-09-29T01:02:49;11.57;;;7.40;;
57401;SDS011;43226;51.110;6.998;2022-09-29T01:05:18;10.27;;;6.23;;
57401;SDS011;43226;51.110;6.998;2022-09-29T01:07:44;9.10;;;6.30;;
57401;SDS011;43226;51.110;6.998;2022-09-29T01:10:11;8.37;;;6.33;;
57401;SDS011;43226;51.110;6.998;2022-09-29T01:12:37;6.40;;;5.70;;
57401;SDS011;43226;51.110;6.998;2022-09-29T01:15:03;28.97;;;8.77;;
57401;SDS011;43226;51.110;6.998;2022-09-29T01:17:28;7.27;;;6.03;;
57401;SDS011;43226;51.110;6.998;2022-09-29T01:20:09;10.03;;;5.90;;
57401;SDS011;43226;51.110;6.998;2022-09-29T01:30:39;10.80;;;6.40;;
57401;SDS011;43226;51.110;6.998;2022-09-29T01:38:34;8.07;;;5.90;;
57401;SDS011;43226;51.110;6.998;2022-09-29T01:44:06;6.60;;;5.00;;
57401;SDS011;43226;51.110;6.998;2022-09-29T01:46:33;12.17;;;6.90;;
57401;SDS011;43226;51.110;6.998;2022-09-29T01:49:00;7.03;;;6.20;;
57401;SDS011;43226;51.110;6.998;2022-09-29T01:51:31;8.60;;;6.23;;
57401;SDS011;43226;51.110;6.998;2022-09-29T01:54:00;11.87;;;7.60;;
57401;SDS011;43226;51.110;6.998;2022-09-29T01:56:28;12.30;;;6.40;;
57401;SDS011;43226;51.110;6.998;2022-09-29T01:58:59;12.80;;;6.60;;
57401;SDS011;43226;51.110;6.998;2022-09-29T02:01:27;9.70;;;6.93;;
57401;SDS011;43226;51.110;6.998;2022-09-29T02:04:02;7.93;;;6.77;;
57401;SDS011;43226;51.110;6.998;2022-09-29T02:06:33;8.07;;;6.20;;
57401;SDS011;43226;51.110;6.998;2022-09-29T02:09:01;10.10;;;6.83;;
57401;SDS011;43226;51.110;6.998;2022-09-29T02:11:27;6.90;;;5.50;;
57401;SDS011;43226;51.110;6.998;2022-09-29T02:16:28;9.13;;;6.23;;
57401;SDS011;43226;51.110;6.998;2022-09-29T02:19:00;9.50;;;6.30;;
57401;SDS011;43226;51.110;6.998;2022-09-29T02:21:26;7.50;;;6.10;;
57401;SDS011;43226;51.110;6.998;2022-09-29T02:23:52;9.30;;;6.77;;
57401;SDS011;43226;51.110;6.998;2022-09-29T02:26:17;16.43;;;6.77;;
57401;SDS011;43226;51.110;6.998;2022-09-29T02:28:43;9.63;;;6.77;;
57401;SDS011;43226;51.110;6.998;2022-09-29T02:31:09;7.97;;;5.70;;
57401;SDS011;43226;51.110;6.998;2022-09-29T02:33:34;8.57;;;6.93;;
57401;SDS011;43226;51.110;6.998;2022-09-29T02:38:34;8.97;;;5.73;;
57401;SDS011;43226;51.110;6.998;2022-09-29T02:41:05;9.00;;;6.03;;
57401;SDS011;43226;51.110;6.998;2022-09-29T02:43:36;8.70;;;6.17;;
57401;SDS011;43226;51.110;6.998;2022-09-29T02:46:11;10.33;;;7.30;;
57401;SDS011;43226;51.110;6.998;2022-09-29T02:51:17;7.40;;;5.75;;
57401;SDS011;43226;51.110;6.998;2022-09-29T02:53:46;9.00;;;5.87;;
57401;SDS011;43226;51.110;6.998;2022-09-29T03:01:12;12.48;;;6.68;;
57401;SDS011;43226;51.110;6.998;2022-09-29T03:03:40;8.40;;;6.07;;
57401;SDS011;43226;51.110;6.998;2022-09-29T03:06:05;7.90;;;6.93;;
57401;SDS011;43226;51.110;6.998;2022-09-29T03:08:30;10.57;;;6.10;;
57401;SDS011;43226;51.110;6.998;2022-09-29T03:10:57;6.70;;;6.00;;
57401;SDS011;43226;51.110;6.998;2022-09-29T03:13:22;8.90;;;5.70;;
57401;SDS011;43226;51.110;6.998;2022-09-29T03:15:47;8.80;;;6.20;;
57401;SDS011;43226;51.110;6.998;2022-09-29T03:18:12;8.20;;;5.63;;
57401;SDS011;43226;51.110;6.998;2022-09-29T03:20:38;10.93;;;6.63;;
57401;SDS011;43226;51.110;6.998;2022-09-29T03:23:03;14.65;;;6.00;;
57401;SDS011;43226;51.110;6.998;2022-09-29T03:25:28;8.53;;;6.53;;
57401;SDS011;43226;51.110;6.998;2022-09-29T03:27:54;6.50;;;5.77;;
57401;SDS011;43226;51.110;6.998;2022-09-29T03:30:19;7.80;;;6.43;;
57401;SDS011;43226;51.110;6.998;2022-09-29T03:32:44;7.67;;;6.67;;
57401;SDS011;43226;51.110;6.998;2022-09-29T03:35:10;6.70;;;5.67;;
57401;SDS011;43226;51.110;6.998;2022-09-29T03:37:35;9.90;;;5.57;;
57401;SDS011;43226;51.110;6.998;2022-09-29T03:40:01;11.93;;;6.00;;
57401;SDS011;43226;51.110;6.998;2022-09-29T03:42:27;10.90;;;7.10;;
57401;SDS011;43226;51.110;6.998;2022-09-29T03:44:52;9.73;;;6.40;;
57401;SDS011;43226;51.110;6.998;2022-09-29T03:47:18;7.70;;;6.87;;
57401;SDS011;43226;51.110;6.998;2022-09-29T03:49:43;8.27;;;6.50;;
57401;SDS011;43226;51.110;6.998;2022-09-29T03:52:08;8.33;;;6.23;;
57401;SDS011;43226;51.110;6.998;2022-09-29T03:54:33;8.27;;;6.40;;
57401;SDS011;43226;51.110;6.998;2022-09-29T03:56:58;9.87;;;6.83;;
57401;SDS011;43226;51.110;6.998;2022-09-29T03:59:23;7.43;;;6.10;;
57401;SDS011;43226;51.110;6.998;2022-09-29T04:01:49;8.03;;;6.40;;
57401;SDS011;43226;51.110;6.998;2022-09-29T04:04:14;8.70;;;7.10;;
57401;SDS011;43226;51.110;6.998;2022-09-29T04:06:39;10.37;;;7.00;;
57401;SDS011;43226;51.110;6.998;2022-09-29T04:09:04;8.47;;;6.27;;
57401;SDS011;43226;51.110;6.998;2022-09-29T04:11:29;9.20;;;6.37;;
57401;SDS011;43226;51.110;6.998;2022-09-29T04:13:55;8.03;;;6.70;;
57401;SDS011;43226;51.110;6.998;2022-09-29T04:16:20;8.73;;;6.20;;
57401;SDS011;43226;51.110;6.998;2022-09-29T04:18:45;10.70;;;6.77;;
57401;SDS011;43226;51.110;6.998;2022-09-29T04:21:10;13.30;;;6.70;;
57401;SDS011;43226;51.110;6.998;2022-09-29T04:23:36;7.70;;;6.00;;
57401;SDS011;43226;51.110;6.998;2022-09-29T04:26:02;8.27;;;6.70;;
57401;SDS011;43226;51.110;6.998;2022-09-29T04:28:29;9.30;;;6.93;;
57401;SDS011;43226;51.110;6.998;2022-09-29T04:30:54;8.60;;;6.53;;
57401;SDS011;43226;51.110;6.998;2022-09-29T04:33:20;10.77;;;6.50;;
57401;SDS011;43226;51.110;6.998;2022-09-29T04:35:45;7.23;;;5.97;;
57401;SDS011;43226;51.110;6.998;2022-09-29T04:38:10;10.43;;;7.17;;
57401;SDS011;43226;51.110;6.998;2022-09-29T04:40:36;11.93;;;8.00;;
57401;SDS011;43226;51.110;6.998;2022-09-29T04:43:01;9.77;;;7.57;;
57401;SDS011;43226;51.110;6.998;2022-09-29T04:45:27;12.57;;;7.67;;
57401;SDS011;43226;51.110;6.998;2022-09-29T04:47:53;7.40;;;6.40;;
57401;SDS011;43226;51.110;6.998;2022-09-29T04:50:18;10.60;;;6.90;;
57401;SDS011;43226;51.110;6.998;2022-09-29T04:52:43;8.23;;;6.77;;
57401;SDS011;43226;51.110;6.998;2022-09-29T04:55:08;7.87;;;6.90;;
57401;SDS011;43226;51.110;6.998;2022-09-29T04:57:35;10.50;;;7.23;;
57401;SDS011;43226;51.110;6.998;2022-09-29T05:00:00;7.67;;;6.57;;
57401;SDS011;43226;51.110;6.998;2022-09-29T05:02:26;10.20;;;7.83;;
57401;SDS011;43226;51.110;6.998;2022-09-29T05:04:51;10.87;;;7.60;;
57401;SDS011;43226;51.110;6.998;2022-09-29T05:07:16;9.43;;;7.30;;
57401;SDS011;43226;51.110;6.998;2022-09-29T05:09:41;10.57;;;7.60;;
57401;SDS011;43226;51.110;6.998;2022-09-29T05:12:06;9.43;;;6.90;;
57401;SDS011;43226;51.110;6.998;2022-09-29T05:14:31;15.73;;;7.00;;
57401;SDS011;43226;51.110;6.998;2022-09-29T05:16:57;11.73;;;7.27;;
57401;SDS011;43226;51.110;6.998;2022-09-29T05:19:22;9.43;;;6.80;;
57401;SDS011;43226;51.110;6.998;2022-09-29T05:21:48;11.03;;;7.30;;
57401;SDS011;43226;51.110;6.998;2022-09-29T05:24:13;11.20;;;7.30;;
57401;SDS011;43226;51.110;6.998;2022-09-29T05:26:38;9.93;;;7.77;;
57401;SDS011;43226;51.110;6.998;2022-09-29T05:29:03;10.20;;;6.93;;
57401;SDS011;43226;51.110;6.998;2022-09-29T05:31:28;10.50;;;7.50;;
57401;SDS011;43226;51.110;6.998;2022-09-29T05:33:54;9.53;;;6.60;;
57401;SDS011;43226;51.110;6.998;2022-09-29T05:36:20;9.50;;;7.27;;
57401;SDS011;43226;51.110;6.998;2022-09-29T05:38:45;7.47;;;6.70;;
57401;SDS011;43226;51.110;6.998;2022-09-29T05:41:11;11.80;;;7.17;;
57401;SDS011;43226;51.110;6.998;2022-09-29T05:43:37;7.27;;;5.63;;
57401;SDS011;43226;51.110;6.998;2022-09-29T05:46:02;8.40;;;6.57;;
57401;SDS011;43226;51.110;6.998;2022-09-29T05:48:28;12.00;;;6.57;;
57401;SDS011;43226;51.110;6.998;2022-09-29T05:50:54;9.67;;;6.30;;
57401;SDS011;43226;51.110;6.998;2022-09-29T05:53:20;8.20;;;5.90;;
57401;SDS011;43226;51.110;6.998;2022-09-29T05:55:45;9.80;;;6.43;;
57401;SDS011;43226;51.110;6.998;2022-09-29T05:58:10;11.70;;;6.80;;
57401;SDS011;43226;51.110;6.998;2022-09-29T06:00:35;11.03;;;7.43;;
57401;SDS011;43226;51.110;6.998;2022-09-29T06:03:00;9.20;;;7.17;;
57401;SDS011;43226;51.110;6.998;2022-09-29T06:05:26;9.53;;;7.40;;
57401;SDS011;43226;51.110;6.998;2022-09-29T06:07:52;9.63;;;6.90;;
57401;SDS011;43226;51.110;6.998;2022-09-29T06:10:17;8.10;;;6.33;;
57401;SDS011;43226;51.110;6.998;2022-09-29T06:12:42;8.63;;;5.43;;
57401;SDS011;43226;51.110;6.998;2022-09-29T06:15:09;7.73;;;5.50;;
57401;SDS011;43226;51.110;6.998;2022-09-29T06:17:34;5.13;;;4.57;;
57401;SDS011;43226;51.110;6.998;2022-09-29T06:19:59;5.37;;;4.80;;
57401;SDS011;43226;51.110;6.998;2022-09-29T06:22:25;6.27;;;5.23;;
57401;SDS011;43226;51.110;6.998;2022-09-29T06:24:51;5.00;;;4.50;;
57401;SDS011;43226;51.110;6.998;2022-09-29T06:27:16;4.60;;;4.10;;
57401;SDS011;43226;51.110;6.998;2022-09-29T06:29:41;5.17;;;4.50;;
57401;SDS011;43226;51.110;6.998;2022-09-29T06:32:07;4.90;;;4.40;;
57401;SDS011;43226;51.110;6.998;2022-09-29T06:34:32;12.30;;;4.60;;
57401;SDS011;43226;51.110;6.998;2022-09-29T06:36:57;10.60;;;4.80;;
57401;SDS011;43226;51.110;6.998;2022-09-29T06:39:41;6.07;;;5.30;;
57401;SDS011;43226;51.110;6.998;2022-09-29T06:42:06;4.53;;;4.13;;
57401;SDS011;43226;51.110;6.998;2022-09-29T06:44:32;8.13;;;4.93;;
57401;SDS011;43226;51.110;6.998;2022-09-29T06:46:57;5.27;;;4.77;;
57401;SDS011;43226;51.110;6.998;2022-09-29T06:49:22;5.40;;;4.90;;
57401;SDS011;43226;51.110;6.998;2022-09-29T06:51:48;6.33;;;4.70;;
57401;SDS011;43226;51.110;6.998;2022-09-29T06:54:15;7.53;;;4.77;;
57401;SDS011;43226;51.110;6.998;2022-09-29T06:56:41;5.40;;;4.47;;
57401;SDS011;43226;51.110;6.998;2022-09-29T06:59:06;5.60;;;4.80;;
57401;SDS011;43226;51.110;6.998;2022-09-29T07:01:31;4.87;;;4.23;;
57401;SDS011;43226;51.110;6.998;2022-09-29T07:03:57;5.77;;;4.90;;
57401;SDS011;43226;51.110;6.998;2022-09-29T07:06:24;4.37;;;3.97;;
57401;SDS011;43226;51.110;6.998;2022-09-29T07:08:52;4.37;;;3.97;;
57401;SDS011;43226;51.110;6.998;2022-09-29T07:11:18;4.40;;;4.00;;
57401;SDS011;43226;51.110;6.998;2022-09-29T07:13:43;3.87;;;3.57;;
57401;SDS011;43226;51.110;6.998;2022-09-29T07:16:09;5.13;;;4.07;;
57401;SDS011;43226;51.110;6.998;2022-09-29T07:18:35;5.60;;;4.13;;
57401;SDS011;43226;51.110;6.998;2022-09-29T07:21:03;5.50;;;4.07;;
57401;SDS011;43226;51.110;6.998;2022-09-29T07:23:29;5.00;;;4.60;;
57401;SDS011;43226;51.110;6.998;2022-09-29T07:25:54;6.03;;;5.43;;
57401;SDS011;43226;51.110;6.998;2022-09-29T07:28:19;4.70;;;4.33;;
57401;SDS011;43226;51.110;6.998;2022-09-29T07:30:44;10.13;;;8.23;;
57401;SDS011;43226;51.110;6.998;2022-09-29T07:33:09;4.93;;;3.93;;
57401;SDS011;43226;51.110;6.998;2022-09-29T07:35:35;6.13;;;5.53;;
57401;SDS011;43226;51.110;6.998;2022-09-29T07:38:00;6.50;;;4.43;;
57401;SDS011;43226;51.110;6.998;2022-09-29T07:40:25;5.50;;;5.00;;
57401;SDS011;43226;51.110;6.998;2022-09-29T07:42:52;5.07;;;4.67;;
57401;SDS011;43226;51.110;6.998;2022-09-29T07:45:17;4.83;;;4.10;;
57401;SDS011;43226;51.110;6.998;2022-09-29T07:47:42;6.30;;;5.80;;
57401;SDS011;43226;51.110;6.998;2022-09-29T07:50:07;6.23;;;4.33;;
57401;SDS011;43226;51.110;6.998;2022-09-29T07:52:33;4.77;;;3.97;;
57401;SDS011;43226;51.110;6.998;2022-09-29T07:54:58;7.53;;;4.60;;
57401;SDS011;43226;51.110;6.998;2022-09-29T07:57:23;4.67;;;4.27;;
57401;SDS011;43226;51.110;6.998;2022-09-29T07:59:48;6.30;;;4.10;;
57401;SDS011;43226;51.110;6.998;2022-09-29T08:02:13;4.73;;;4.00;;
57401;SDS011;43226;51.110;6.998;2022-09-29T08:04:39;4.90;;;4.00;;
57401;SDS011;43226;51.110;6.998;2022-09-29T08:07:04;8.80;;;3.90;;
57401;SDS011;43226;51.110;6.998;2022-09-29T08:09:29;7.20;;;3.73;;
57401;SDS011;43226;51.110;6.998;2022-09-29T08:11:54;5.47;;;3.57;;
57401;SDS011;43226;51.110;6.998;2022-09-29T08:14:19;7.30;;;3.63;;
57401;SDS011;43226;51.110;6.998;2022-09-29T08:16:45;5.43;;;3.80;;
57401;SDS011;43226;51.110;6.998;2022-09-29T08:19:10;5.27;;;3.57;;
57401;SDS011;43226;51.110;6.998;2022-09-29T08:21:35;6.80;;;3.90;;
57401;SDS011;43226;51.110;6.998;2022-09-29T08:24:01;4.30;;;3.50;;
57401;SDS011;43226;51.110;6.998;2022-09-29T08:26:28;5.73;;;3.67;;
57401;SDS011;43226;51.110;6.998;2022-09-29T08:28:55;6.20;;;3.90;;
57401;SDS011;43226;51.110;6.998;2022-09-29T08:31:20;6.00;;;3.80;;
57401;SDS011;43226;51.110;6.998;2022-09-29T08:33:47;4.30;;;3.60;;
57401;SDS011;43226;51.110;6.998;2022-09-29T08:36:16;6.47;;;4.20;;
57401;SDS011;43226;51.110;6.998;2022-09-29T08:38:45;5.33;;;4.00;;
57401;SDS011;43226;51.110;6.998;2022-09-29T08:43:51;9.70;;;4.30;;
57401;SDS011;43226;51.110;6.998;2022-09-29T08:46:32;4.20;;;3.60;;
57401;SDS011;43226;51.110;6.998;2022-09-29T08:48:58;6.70;;;3.57;;
57401;SDS011;43226;51.110;6.998;2022-09-29T08:53:52;4.57;;;3.50;;
57401;SDS011;43226;51.110;6.998;2022-09-29T08:56:19;6.03;;;4.43;;
57401;SDS011;43226;51.110;6.998;2022-09-29T08:58:45;6.10;;;3.37;;
57401;SDS011;43226;51.110;6.998;2022-09-29T09:14:22;6.50;;;3.67;;
57401;SDS011;43226;51.110;6.998;2022-09-29T09:19:38;4.13;;;3.70;;
57401;SDS011;43226;51.110;6.998;2022-09-29T09:24:47;3.93;;;3.40;;
57401;SDS011;43226;51.110;6.998;2022-09-29T09:27:14;6.23;;;4.20;;
57401;SDS011;43226;51.110;6.998;2022-09-29T09:29:41;4.37;;;3.87;;
57401;SDS011;43226;51.110;6.998;2022-09-29T09:32:18;8.40;;;3.93;;
57401;SDS011;43226;51.110;6.998;2022-09-29T09:37:31;7.73;;;3.70;;
57401;SDS011;43226;51.110;6.998;2022-09-29T09:40:05;6.50;;;3.23;;
57401;SDS011;43226;51.110;6.998;2022-09-29T09:42:38;3.73;;;3.33;;
57401;SDS011;43226;51.110;6.998;2022-09-29T09:47:36;4.43;;;3.37;;
57401;SDS011;43226;51.110;6.998;2022-09-29T09:50:22;4.53;;;3.47;;
57401;SDS011;43226;51.110;6.998;2022-09-29T09:52:54;4.00;;;3.53;;
57401;SDS011;43226;51.110;6.998;2022-09-29T09:55:21;4.07;;;3.23;;
57401;SDS011;43226;51.110;6.998;2022-09-29T10:00:37;4.10;;;3.70;;
57401;SDS011;43226;51.110;6.998;2022-09-29T10:03:05;5.07;;;3.60;;
57401;SDS011;43226;51.110;6.998;2022-09-29T10:05:32;4.37;;;3.97;;
57401;SDS011;43226;51.110;6.998;2022-09-29T10:08:00;4.10;;;3.70;;
57401;SDS011;43226;51.110;6.998;2022-09-29T10:10:26;5.07;;;3.90;;
57401;SDS011;43226;51.110;6.998;2022-09-29T10:15:27;5.23;;;3.50;;
57401;SDS011;43226;51.110;6.998;2022-09-29T10:18:13;6.00;;;3.43;;
57401;SDS011;43226;51.110;6.998;2022-09-29T10:20:40;6.10;;;3.40;;
57401;SDS011;43226;51.110;6.998;2022-09-29T10:23:21;5.33;;;3.50;;
57401;SDS011;43226;51.110;6.998;2022-09-29T10:25:51;4.60;;;3.67;;
57401;SDS011;43226;51.110;6.998;2022-09-29T10:28:17;7.93;;;3.40;;
57401;SDS011;43226;51.110;6.998;2022-09-29T10:30:43;6.50;;;3.60;;
57401;SDS011;43226;51.110;6.998;2022-09-29T10:33:10;4.83;;;3.50;;
57401;SDS011;43226;51.110;6.998;2022-09-29T10:35:38;5.03;;;3.67;;
57401;SDS011;43226;51.110;6.998;2022-09-29T10:38:04;17.50;;;7.23;;
57401;SDS011;43226;51.110;6.998;2022-09-29T10:40:30;18.93;;;8.10;;
57401;SDS011;43226;51.110;6.998;2022-09-29T10:42:55;9.93;;;5.47;;
57401;SDS011;43226;51.110;6.998;2022-09-29T10:45:25;7.23;;;4.97;;
57401;SDS011;43226;51.110;6.998;2022-09-29T10:50:23;8.47;;;5.00;;
57401;SDS011;43226;51.110;6.998;2022-09-29T10:52:53;6.63;;;4.90;;
57401;SDS011;43226;51.110;6.998;2022-09-29T10:55:22;7.83;;;4.20;;
57401;SDS011;43226;51.110;6.998;2022-09-29T10:57:48;4.20;;;3.80;;
57401;SDS011;43226;51.110;6.998;2022-09-29T11:00:23;6.67;;;4.00;;
57401;SDS011;43226;51.110;6.998;2022-09-29T11:02:50;6.73;;;3.70;;
57401;SDS011;43226;51.110;6.998;2022-09-29T11:05:17;5.63;;;3.17;;
57401;SDS011;43226;51.110;6.998;2022-09-29T11:07:43;6.40;;;4.20;;
57401;SDS011;43226;51.110;6.998;2022-09-29T11:10:31;7.47;;;5.20;;
57401;SDS011;43226;51.110;6.998;2022-09-29T11:12:54;4.30;;;3.90;;
57401;SDS011;43226;51.110;6.998;2022-09-29T11:15:27;5.30;;;3.87;;
57401;SDS011;43226;51.110;6.998;2022-09-29T11:17:53;3.77;;;2.90;;
57401;SDS011;43226;51.110;6.998;2022-09-29T11:20:18;3.90;;;3.13;;
57401;SDS011;43226;51.110;6.998;2022-09-29T11:28:02;3.00;;;2.80;;
57401;SDS011;43226;51.110;6.998;2022-09-29T11:30:40;5.07;;;3.80;;
57401;SDS011;43226;51.110;6.998;2022-09-29T11:33:14;5.00;;;3.43;;
57401;SDS011;43226;51.110;6.998;2022-09-29T11:41:30;6.10;;;3.57;;
57401;SDS011;43226;51.110;6.998;2022-09-29T11:49:29;4.10;;;2.80;;
57401;SDS011;43226;51.110;6.998;2022-09-29T12:01:56;5.00;;;2.50;;
57401;SDS011;43226;51.110;6.998;2022-09-29T12:07:09;4.33;;;2.30;;
57401;SDS011;43226;51.110;6.998;2022-09-29T12:09:46;6.70;;;3.20;;
57401;SDS011;43226;51.110;6.998;2022-09-29T12:14:49;4.43;;;2.97;;
57401;SDS011;43226;51.110;6.998;2022-09-29T12:17:17;8.90;;;2.73;;
57401;SDS011;43226;51.110;6.998;2022-09-29T12:19:43;7.97;;;4.17;;
57401;SDS011;43226;51.110;6.998;2022-09-29T12:22:10;6.70;;;5.50;;
57401;SDS011;43226;51.110;6.998;2022-09-29T12:27:23;10.80;;;6.13;;
57401;SDS011;43226;51.110;6.998;2022-09-29T12:29:54;4.63;;;4.07;;
57401;SDS011;43226;51.110;6.998;2022-09-29T12:34:50;8.43;;;5.10;;
57401;SDS011;43226;51.110;6.998;2022-09-29T12:39:58;5.87;;;3.37;;
57401;SDS011;43226;51.110;6.998;2022-09-29T12:45:21;11.40;;;9.87;;
57401;SDS011;43226;51.110;6.998;2022-09-29T12:48:03;4.83;;;2.90;;
57401;SDS011;43226;51.110;6.998;2022-09-29T12:50:40;3.90;;;2.37;;
57401;SDS011;43226;51.110;6.998;2022-09-29T12:53:11;3.23;;;2.90;;
57401;SDS011;43226;51.110;6.998;2022-09-29T12:55:42;6.13;;;2.77;;
57401;SDS011;43226;51.110;6.998;2022-09-29T12:58:13;5.07;;;3.03;;
57401;SDS011;43226;51.110;6.998;2022-09-29T13:00:38;5.80;;;4.77;;
57401;SDS011;43226;51.110;6.998;2022-09-29T13:03:16;3.47;;;2.50;;
57401;SDS011;43226;51.110;6.998;2022-09-29T13:06:04;4.87;;;3.53;;
57401;SDS011;43226;51.110;6.998;2022-09-29T13:08:49;3.63;;;2.70;;
57401;SDS011;43226;51.110;6.998;2022-09-29T13:13:58;3.03;;;2.67;;
57401;SDS011;43226;51.110;6.998;2022-09-29T13:16:37;2.60;;;2.10;;
57401;SDS011;43226;51.110;6.998;2022-09-29T13:26:58;3.80;;;3.43;;
57401;SDS011;43226;51.110;6.998;2022-09-29T13:29:26;4.10;;;2.33;;
57401;SDS011;43226;51.110;6.998;2022-09-29T13:31:53;3.67;;;2.30;;
57401;SDS011;43226;51.110;6.998;2022-09-29T13:36:59;4.00;;;2.27;;
57401;SDS011;43226;51.110;6.998;2022-09-29T13:39:29;8.30;;;2.20;;
57401;SDS011;43226;51.110;6.998;2022-09-29T13:41:54;2.60;;;2.30;;
57401;SDS011;43226;51.110;6.998;2022-09-29T13:44:24;5.43;;;2.80;;
57401;SDS011;43226;51.110;6.998;2022-09-29T13:46:50;3.20;;;2.57;;
57401;SDS011;43226;51.110;6.998;2022-09-29T13:56:48;4.40;;;2.50;;
57401;SDS011;43226;51.110;6.998;2022-09-29T13:59:14;6.73;;;2.70;;
57401;SDS011;43226;51.110;6.998;2022-09-29T14:01:41;7.23;;;2.53;;
57401;SDS011;43226;51.110;6.998;2022-09-29T14:06:51;3.33;;;2.80;;
57401;SDS011;43226;51.110;6.998;2022-09-29T14:09:20;5.43;;;2.90;;
57401;SDS011;43226;51.110;6.998;2022-09-29T14:11:48;2.67;;;2.33;;
57401;SDS011;43226;51.110;6.998;2022-09-29T14:14:21;3.77;;;3.20;;
57401;SDS011;43226;51.110;6.998;2022-09-29T14:17:02;6.13;;;4.20;;
57401;SDS011;43226;51.110;6.998;2022-09-29T14:19:41;2.93;;;2.60;;
57401;SDS011;43226;51.110;6.998;2022-09-29T14:24:54;7.70;;;3.57;;
57401;SDS011;43226;51.110;6.998;2022-09-29T14:29:52;4.53;;;2.30;;
57401;SDS011;43226;51.110;6.998;2022-09-29T14:32:20;4.17;;;2.63;;
57401;SDS011;43226;51.110;6.998;2022-09-29T14:34:47;3.10;;;2.13;;
57401;SDS011;43226;51.110;6.998;2022-09-29T14:37:16;3.90;;;2.23;;
57401;SDS011;43226;51.110;6.998;2022-09-29T14:39:43;3.20;;;2.60;;
57401;SDS011;43226;51.110;6.998;2022-09-29T14:42:29;5.07;;;2.47;;
57401;SDS011;43226;51.110;6.998;2022-09-29T14:44:54;4.80;;;2.27;;
57401;SDS011;43226;51.110;6.998;2022-09-29T14:47:47;6.63;;;4.80;;
57401;SDS011;43226;51.110;6.998;2022-09-29T14:53:41;5.73;;;3.50;;
57401;SDS011;43226;51.110;6.998;2022-09-29T15:06:06;4.30;;;2.97;;
57401;SDS011;43226;51.110;6.998;2022-09-29T15:08:33;8.20;;;3.17;;
57401;SDS011;43226;51.110;6.998;2022-09-29T15:11:00;5.30;;;3.00;;
57401;SDS011;43226;51.110;6.998;2022-09-29T15:13:27;4.23;;;2.60;;
57401;SDS011;43226;51.110;6.998;2022-09-29T15:15:55;3.30;;;3.00;;
57401;SDS011;43226;51.110;6.998;2022-09-29T15:20:53;5.70;;;3.67;;
57401;SDS011;43226;51.110;6.998;2022-09-29T15:25:47;3.13;;;2.60;;
57401;SDS011;43226;51.110;6.998;2022-09-29T15:28:15;5.37;;;2.77;;
57401;SDS011;43226;51.110;6.998;2022-09-29T15:30:42;4.47;;;3.17;;
57401;SDS011;43226;51.110;6.998;2022-09-29T15:33:22;4.60;;;2.80;;
57401;SDS011;43226;51.110;6.998;2022-09-29T15:36:34;12.10;;;9.17;;
57401;SDS011;43226;51.110;6.998;2022-09-29T15:38:34;8.57;;;4.33;;
57401;SDS011;43226;51.110;6.998;2022-09-29T15:41:13;22.63;;;12.73;;
57401;SDS011;43226;51.110;6.998;2022-09-29T15:43:40;18.90;;;11.67;;
57401;SDS011;43226;51.110;6.998;2022-09-29T15:46:19;11.20;;;6.90;;
57401;SDS011;43226;51.110;6.998;2022-09-29T15:49:03;23.60;;;13.53;;
57401;SDS011;43226;51.110;6.998;2022-09-29T15:51:29;14.27;;;7.67;;
57401;SDS011;43226;51.110;6.998;2022-09-29T15:53:54;12.30;;;7.37;;
57401;SDS011;43226;51.110;6.998;2022-09-29T15:56:19;23.70;;;17.80;;
57401;SDS011;43226;51.110;6.998;2022-09-29T15:58:45;33.00;;;21.57;;
57401;SDS011;43226;51.110;6.998;2022-09-29T16:01:12;15.47;;;9.70;;
57401;SDS011;43226;51.110;6.998;2022-09-29T16:03:42;15.00;;;6.90;;
57401;SDS011;43226;51.110;6.998;2022-09-29T16:06:30;9.00;;;5.20;;
57401;SDS011;43226;51.110;6.998;2022-09-29T16:08:58;7.40;;;4.43;;
57401;SDS011;43226;51.110;6.998;2022-09-29T16:13:51;6.07;;;3.93;;
57401;SDS011;43226;51.110;6.998;2022-09-29T16:16:19;7.60;;;4.07;;
57401;SDS011;43226;51.110;6.998;2022-09-29T16:18:49;5.40;;;3.60;;
57401;SDS011;43226;51.110;6.998;2022-09-29T16:21:17;2.90;;;2.13;;
57401;SDS011;43226;51.110;6.998;2022-09-29T16:24:05;4.30;;;2.47;;
57401;SDS011;43226;51.110;6.998;2022-09-29T16:31:37;5.37;;;2.47;;
57401;SDS011;43226;51.110;6.998;2022-09-29T16:34:03;6.73;;;2.47;;
57401;SDS011;43226;51.110;6.998;2022-09-29T16:36:30;4.43;;;2.70;;
57401;SDS011;43226;51.110;6.998;2022-09-29T16:39:01;5.13;;;2.73;;
57401;SDS011;43226;51.110;6.998;2022-09-29T16:41:30;2.70;;;2.07;;
57401;SDS011;43226;51.110;6.998;2022-09-29T16:49:27;4.33;;;2.10;;
57401;SDS011;43226;51.110;6.998;2022-09-29T16:51:53;2.43;;;2.23;;
57401;SDS011;43226;51.110;6.998;2022-09-29T16:54:54;11.10;;;2.57;;
57401;SDS011;43226;51.110;6.998;2022-09-29T16:57:19;8.40;;;2.37;;
57401;SDS011;43226;51.110;6.998;2022-09-29T16:59:46;2.87;;;2.30;;
57401;SDS011;43226;51.110;6.998;2022-09-29T17:02:12;4.63;;;2.47;;
57401;SDS011;43226;51.110;6.998;2022-09-29T17:04:37;6.90;;;3.00;;
57401;SDS011;43226;51.110;6.998;2022-09-29T17:07:03;9.50;;;2.80;;
57401;SDS011;43226;51.110;6.998;2022-09-29T17:09:28;3.27;;;2.37;;
57401;SDS011;43226;51.110;6.998;2022-09-29T17:11:53;3.13;;;2.07;;
57401;SDS011;43226;51.110;6.998;2022-09-29T17:14:18;2.67;;;2.20;;
57401;SDS011;43226;51.110;6.998;2022-09-29T17:16:45;5.70;;;2.70;;
57401;SDS011;43226;51.110;6.998;2022-09-29T17:19:10;4.67;;;3.40;;
57401;SDS011;43226;51.110;6.998;2022-09-29T17:21:36;5.80;;;3.53;;
57401;SDS011;43226;51.110;6.998;2022-09-29T17:24:01;9.10;;;4.90;;
57401;SDS011;43226;51.110;6.998;2022-09-29T17:26:33;14.50;;;6.07;;
57401;SDS011;43226;51.110;6.998;2022-09-29T17:29:17;8.20;;;5.87;;
57401;SDS011;43226;51.110;6.998;2022-09-29T17:31:42;8.83;;;4.77;;
57401;SDS011;43226;51.110;6.998;2022-09-29T17:34:07;9.90;;;5.60;;
57401;SDS011;43226;51.110;6.998;2022-09-29T17:36:33;11.40;;;5.60;;
57401;SDS011;43226;51.110;6.998;2022-09-29T17:38:59;8.83;;;5.30;;
57401;SDS011;43226;51.110;6.998;2022-09-29T17:41:24;9.20;;;5.53;;